Latest Weather Observations for Georgetown Airport

IDQ60801

Issued at 6:02 pm EST Monday 8 February 2016 (issued every 30 minutes, with the page automatically refreshed every 10 minutes)

About weather observations | Map of weather stations | Latest weather observations for QLD | Other Formats
Station Details ID: 030124 Name: GEORGETOWN AIRPORT Lat: -18.30 Lon: 143.53 Height: 301.77 m
Data from the previous 72 hours. | See also: Recent months at Georgetown Airport
Date/Time
EST
Temp
°C
App
Temp
°C
Dew
Point
Rel
Hum
%
Delta-T
°C
Wind Press
QNH
hPa
Press
MSL
hPa
Rain
since 9 am
mm
Dir
 
Spd
km/h
Gust
km/h
Spd
kts
Gust
kts
08/06:00pm 35.3 36.9 19.2 38 10.8 WNW 9 15 5 8 1007.3 1005.2 0.0
08/05:30pm 36.0 37.7 19.4 37 11.2 W 9 13 5 7 1006.9 - 0.0
08/05:00pm 36.0 37.2 19.9 39 10.9 W 13 17 7 9 1006.7 - 0.0
08/04:30pm 36.2 38.0 19.6 37 11.2 W 9 15 5 8 1006.6 - 0.0
08/04:00pm 35.7 37.9 19.2 38 11.0 WNW 6 13 3 7 1006.3 - 0.0
08/03:30pm 35.9 37.6 20.2 40 10.6 WSW 11 19 6 10 1006.6 - 0.0
08/03:00pm 35.2 35.6 19.1 38 10.8 WNW 15 22 8 12 1007.0 1004.9 0.0
08/02:30pm 35.0 36.3 20.9 43 9.6 WSW 15 24 8 13 1007.6 - 0.0
08/02:00pm 34.9 37.3 20.8 43 9.6 WNW 9 15 5 8 1008.1 - 0.0
08/01:30pm 34.5 36.3 21.2 46 9.1 WNW 13 20 7 11 1008.6 - 0.0
08/01:00pm 33.9 37.1 20.6 45 9.0 NNW 4 11 2 6 1009.0 - 0.0
08/12:30pm 33.2 35.3 21.7 51 7.9 W 13 20 7 11 1009.6 - 0.0
08/12:00pm 33.3 36.0 22.1 52 7.7 W 11 19 6 10 1010.2 1008.1 0.0
08/11:30am 32.6 35.1 21.1 50 7.8 SW 9 15 5 8 1010.7 - 0.0
08/11:00am 32.3 34.5 20.5 49 7.9 W 9 15 5 8 1011.3 - 0.0
08/10:30am 31.7 35.2 21.8 55 6.8 ENE 6 9 3 5 1011.5 - 0.0
08/10:00am 31.0 34.9 21.8 58 6.3 SSE 4 7 2 4 1011.7 - 0.0
08/09:30am 29.8 33.0 21.7 61 5.5 S 7 13 4 7 1011.6 - 0.0
08/09:00am 28.7 32.7 23.1 71 3.9 SW 7 13 4 7 1011.5 1009.4 0.0
08/08:30am 27.7 31.8 23.3 77 3.0 SSW 7 9 4 5 1011.1 - 0.0
08/08:00am 27.4 31.5 23.2 78 2.9 WSW 7 11 4 6 1011.1 - 0.0
08/07:30am 27.1 30.6 22.9 78 2.9 W 9 13 5 7 1010.5 - 0.0
08/07:00am 26.2 32.4 24.6 91 1.1 CALM 0 6 0 3 1010.2 - 0.0
08/06:30am 25.5 30.9 23.9 91 1.1 NW 2 7 1 4 1009.6 - 0.0
08/06:00am 25.8 31.5 23.8 89 1.4 CALM 0 0 0 0 1009.1 1007.0 0.0
08/05:30am 25.8 31.5 23.7 88 1.5 CALM 0 6 0 3 1008.9 - 0.0
08/05:00am 25.9 31.6 23.8 88 1.5 CALM 0 0 0 0 1008.7 - 0.0
08/04:30am 26.6 32.0 23.9 85 1.9 NNE 2 6 1 3 1008.6 - 0.0
08/04:00am 27.1 31.7 23.8 82 2.3 E 6 7 3 4 1008.5 - 0.0
08/03:30am 27.0 33.2 24.6 87 1.7 CALM 0 0 0 0 1008.6 - 0.0
08/03:00am 27.2 33.0 25.2 89 1.4 ESE 4 7 2 4 1008.5 1006.4 0.0
08/02:30am 26.8 32.9 24.5 87 1.6 CALM 0 0 0 0 1008.5 - 0.0
08/02:00am 26.6 32.4 24.6 89 1.4 WSW 2 7 1 4 1008.5 - 0.0
08/01:30am 26.5 32.1 23.6 84 2.0 CALM 0 0 0 0 1008.5 - 0.0
08/01:00am 27.0 32.7 23.7 82 2.3 CALM 0 0 0 0 1008.8 - 0.0
08/12:30am 27.4 32.7 23.0 77 3.0 CALM 0 0 0 0 1009.1 - 0.0
08/12:00am 28.0 33.2 22.9 74 3.5 CALM 0 0 0 0 1009.3 1007.2 0.0
 
Date/Time
EST
Temp
°C
App
Temp
°C
Dew
Point
Rel
Hum
%
Delta-T
°C
Wind Press
QNH
hPa
Press
MSL
hPa
Rain
since 9 am
mm
Dir
 
Spd
km/h
Gust
km/h
Spd
kts
Gust
kts
07/11:30pm 29.0 33.8 22.2 66 4.6 CALM 0 0 0 0 1009.3 - 0.0
07/11:00pm 29.2 32.5 21.9 64 5.0 WSW 7 7 4 4 1009.4 - 0.0
07/10:30pm 29.4 33.1 22.6 67 4.7 W 7 9 4 5 1009.4 - 0.0
07/10:00pm 29.7 33.8 22.9 67 4.7 W 6 7 3 4 1009.4 - 0.0
07/09:30pm 29.9 35.9 24.3 72 3.9 CALM 0 0 0 0 1009.1 - 0.0
07/09:00pm 29.6 35.2 23.5 69 4.3 CALM 0 0 0 0 1009.0 1006.9 0.0
07/08:30pm 29.8 34.7 22.3 64 5.1 CALM 0 0 0 0 1008.6 - 0.0
07/08:00pm 30.6 35.4 22.2 61 5.8 CALM 0 0 0 0 1008.2 - 0.0
07/07:30pm 31.4 35.6 21.8 56 6.6 W 2 6 1 3 1008.0 - 0.0
07/07:00pm 32.3 35.5 21.2 52 7.5 W 6 7 3 4 1007.7 - 0.0
07/06:30pm 33.8 36.3 20.2 44 9.2 WNW 7 9 4 5 1007.4 - 0.0
07/06:00pm 34.2 35.8 19.1 41 10.1 NW 9 13 5 7 1007.2 1005.1 0.0
07/05:30pm 34.4 36.1 18.4 38 10.5 WNW 7 11 4 6 1006.6 - 0.0
07/05:00pm 35.2 36.8 19.1 38 10.7 WSW 9 13 5 7 1006.3 - 0.0
07/04:30pm 35.1 36.5 18.6 37 10.9 WNW 9 15 5 8 1006.2 - 0.0
07/04:00pm 35.0 36.7 18.6 38 10.9 NNW 7 13 4 7 1006.3 - 0.0
07/03:30pm 35.4 36.7 18.5 37 11.2 W 9 15 5 8 1006.4 - 0.0
07/03:00pm 34.9 36.6 19.3 40 10.4 WSW 9 15 5 8 1006.7 1004.6 0.0
07/02:30pm 34.4 34.8 17.2 36 11.1 W 11 17 6 9 1006.9 - 0.0
07/02:00pm 34.5 35.6 18.1 37 10.8 W 9 15 5 8 1007.3 - 0.0
07/01:30pm 34.1 34.9 17.3 36 10.9 W 9 17 5 9 1007.8 - 0.0
07/01:00pm 33.6 34.2 16.9 37 10.8 WSW 9 15 5 8 1008.3 - 0.0
07/12:30pm 33.3 34.5 18.3 41 9.8 W 9 13 5 7 1008.6 - 0.0
07/12:00pm 33.1 34.1 16.9 38 10.4 W 7 13 4 7 1008.9 1006.8 0.0
07/11:30am 33.2 34.8 17.8 40 10.0 WSW 6 13 3 7 1009.2 - 0.0
07/11:00am 32.4 34.0 18.2 42 9.3 SSW 7 11 4 6 1009.3 - 0.0
07/10:30am 31.5 33.4 18.5 46 8.5 SW 6 11 3 6 1009.4 - 0.0
07/10:00am 30.9 32.6 19.3 50 7.7 WSW 9 13 5 7 1009.4 - 0.0
07/09:30am 29.8 33.7 21.2 60 5.8 W 2 9 1 5 1009.2 - 0.0
07/09:00am 28.9 33.3 21.4 64 5.1 CALM 0 4 0 2 1009.2 1007.1 0.0
07/08:30am 28.2 33.0 22.2 70 4.1 CALM 0 4 0 2 1009.1 - 0.0
07/08:00am 27.7 32.4 22.0 71 3.9 CALM 0 0 0 0 1008.9 - 0.0
07/07:30am 26.7 32.4 23.8 84 2.0 CALM 0 6 0 3 1008.5 - 0.0
07/07:00am 24.8 30.7 24.1 96 0.5 CALM 0 0 0 0 1008.2 - 0.0
07/06:30am 24.0 29.7 23.7 98 0.2 CALM 0 0 0 0 1007.6 - 0.0
07/06:00am 24.1 29.7 23.6 97 0.3 CALM 0 0 0 0 1007.2 1005.1 0.0
07/05:30am 24.1 29.7 23.6 97 0.3 CALM 0 0 0 0 1006.9 - 0.0
07/05:00am 24.3 30.0 23.8 97 0.3 CALM 0 0 0 0 1006.5 - 0.0
07/04:30am 24.6 30.4 23.9 96 0.5 CALM 0 0 0 0 1006.5 - 0.0
07/04:00am 24.6 30.4 23.9 96 0.5 CALM 0 0 0 0 1006.2 - 0.0
07/03:30am 24.9 30.7 24.0 95 0.6 CALM 0 0 0 0 1006.1 - 0.0
07/03:00am 25.4 31.2 24.0 92 1.0 CALM 0 0 0 0 1006.1 1004.0 0.0
07/02:30am 25.7 31.6 24.1 91 1.1 CALM 0 0 0 0 1006.4 - 0.0
07/02:00am 26.2 32.5 24.8 92 1.0 CALM 0 0 0 0 1006.7 - 0.0
07/01:30am 26.1 32.0 24.1 89 1.4 CALM 0 0 0 0 1006.9 - 0.0
07/01:00am 26.2 32.0 24.6 91 1.1 ENE 2 6 1 3 1007.1 - 0.0
07/12:30am 26.4 32.9 25.0 92 1.0 CALM 0 6 0 3 1007.6 - 0.0
07/12:00am 26.3 32.7 24.9 92 1.0 CALM 0 0 0 0 1007.9 1005.7 0.0
 
Date/Time
EST
Temp
°C
App
Temp
°C
Dew
Point
Rel
Hum
%
Delta-T
°C
Wind Press
QNH
hPa
Press
MSL
hPa
Rain
since 9 am
mm
Dir
 
Spd
km/h
Gust
km/h
Spd
kts
Gust
kts
06/11:30pm 26.2 32.2 24.2 89 1.4 CALM 0 0 0 0 1007.8 - 0.0
06/11:00pm 26.4 32.5 24.4 89 1.4 CALM 0 0 0 0 1007.8 - 0.0
06/10:30pm 26.9 33.0 24.4 86 1.7 CALM 0 0 0 0 1007.8 - 0.0
06/10:00pm 27.1 33.3 24.6 86 1.8 CALM 0 0 0 0 1007.2 - 0.0
06/09:30pm 27.2 33.0 23.9 82 2.3 CALM 0 0 0 0 1006.7 - 0.0
06/09:00pm 27.8 33.3 23.4 77 3.1 CALM 0 0 0 0 1006.4 1004.3 0.0
06/08:30pm 28.6 34.0 23.3 73 3.7 CALM 0 0 0 0 1006.3 - 0.0
06/08:00pm 29.5 34.9 23.2 69 4.4 CALM 0 0 0 0 1006.0 - 0.0
06/07:30pm 30.4 35.0 21.8 60 5.9 CALM 0 6 0 3 1005.5 - 0.0
06/07:00pm 31.7 34.4 20.3 50 7.6 WNW 6 7 3 4 1005.2 - 0.0
06/06:30pm 32.3 34.3 19.2 46 8.7 W 7 13 4 7 1004.9 - 0.0
06/06:00pm 33.0 36.2 21.2 50 8.1 W 6 9 3 5 1004.6 1002.4 0.0
06/05:30pm 33.6 34.5 19.3 43 9.5 W 13 17 7 9 1004.2 - 0.0
06/05:00pm 34.3 36.8 20.3 44 9.5 W 7 13 4 7 1003.9 - 0.0
06/04:30pm 34.0 34.7 19.6 42 9.6 W 15 20 8 11 1003.9 - 0.0
06/04:00pm 34.3 35.7 19.5 41 9.9 WSW 11 17 6 9 1003.9 - 0.0
06/03:30pm 33.9 35.8 21.3 47 8.6 WSW 13 20 7 11 1004.2 - 0.0
06/03:00pm 33.6 34.3 20.4 46 8.9 W 17 22 9 12 1004.5 1002.3 0.0
06/02:30pm 33.7 37.2 22.1 50 8.0 WNW 7 19 4 10 1004.5 - 0.0
06/02:00pm 33.0 34.5 20.5 47 8.4 WSW 13 19 7 10 1004.8 - 0.0
06/01:30pm 32.7 34.2 20.6 49 8.2 WSW 13 19 7 10 1005.1 - 0.0
06/01:00pm 32.2 33.5 20.1 48 8.1 WSW 13 19 7 10 1005.4 - 0.0
06/12:30pm 32.0 34.2 21.2 52 7.3 NW 11 20 6 11 1005.7 - 0.0
06/12:00pm 31.9 34.4 21.7 54 7.0 WSW 11 17 6 9 1005.8 1003.7 0.0
06/11:30am 31.5 33.9 20.8 53 7.2 WSW 9 17 5 9 1006.0 - 0.0
06/11:00am 31.0 34.0 21.2 56 6.6 W 7 15 4 8 1006.2 - 0.0
06/10:30am 30.7 33.9 23.1 64 5.3 W 11 17 6 9 1006.4 - 0.0
06/10:00am 30.3 34.2 23.0 65 5.1 NNW 7 11 4 6 1006.4 - 0.0
06/09:30am 29.6 34.1 22.3 65 5.0 W 2 7 1 4 1006.3 - 0.0
06/09:00am 28.8 33.6 23.5 73 3.7 NNE 4 7 2 4 1006.3 1004.2 0.4
06/08:30am 28.1 33.4 23.7 77 3.1 NE 2 7 1 4 1006.1 - 0.4
06/08:00am 27.1 32.9 24.6 86 1.8 NNW 2 9 1 5 1005.9 - 0.4
06/07:37am 26.3 32.8 25.1 93 0.8 CALM 0 0 0 0 1005.7 - 0.4
06/07:30am 26.0 32.5 25.0 94 0.7 CALM 0 6 0 3 1005.8 - 0.4
06/07:00am 25.5 31.5 25.5 100 0.0 N 4 7 2 4 1005.5 - 0.4
06/06:44am 24.9 31.3 24.9 100 0.0 CALM 0 0 0 0 1005.4 - 0.4
06/06:30am 24.6 29.9 24.3 98 0.2 N 4 6 2 3 1005.1 - 0.4
06/06:00am 24.5 30.5 24.2 98 0.2 CALM 0 0 0 0 1004.6 1002.4 0.4
06/05:30am 24.6 30.4 23.9 96 0.5 CALM 0 0 0 0 1004.3 - 0.4
06/05:00am 24.9 30.7 23.9 94 0.7 CALM 0 4 0 2 1003.8 - 0.4
06/04:30am 25.2 29.9 24.0 93 0.8 N 6 7 3 4 1003.8 - 0.4
06/04:00am 25.1 30.3 24.2 95 0.6 N 4 7 2 4 1003.7 - 0.4
06/03:30am 25.0 29.8 24.1 95 0.6 WNW 6 7 3 4 1003.4 - 0.4
06/03:00am 25.2 31.2 24.2 94 0.7 CALM 0 0 0 0 1003.3 1001.2 0.4
06/02:30am 25.3 31.1 23.9 92 1.0 CALM 0 2 0 1 1003.2 - 0.4
06/02:00am 25.6 31.6 24.2 92 1.0 CALM 0 0 0 0 1003.5 - 0.4
06/01:30am 26.0 31.2 24.2 90 1.3 SW 4 6 2 3 1004.1 - 0.4
06/01:00am 26.2 31.8 23.5 85 1.9 CALM 0 0 0 0 1004.5 - 0.4
06/12:30am 26.5 30.5 22.8 80 2.5 SW 6 6 3 3 1004.9 - 0.4
06/12:00am 26.8 31.6 23.5 82 2.3 SW 4 6 2 3 1005.3 1003.2 0.4
 
Date/Time
EST
Temp
°C
App
Temp
°C
Dew
Point
Rel
Hum
%
Delta-T
°C
Wind Press
QNH
hPa
Press
MSL
hPa
Rain
since 9 am
mm
Dir
 
Spd
km/h
Gust
km/h
Spd
kts
Gust
kts
05/11:30pm 26.9 30.8 22.9 79 2.7 SW 7 9 4 5 1005.6 - 0.4
05/11:00pm 27.1 31.2 23.3 80 2.6 SW 7 9 4 5 1005.7 - 0.4
05/10:30pm 27.0 31.9 24.6 87 1.7 WSW 7 9 4 5 1005.7 - 0.4
05/10:00pm 27.2 33.4 24.6 86 1.8 CALM 0 0 0 0 1005.7 - 0.4
05/09:30pm 27.5 33.8 24.7 85 2.0 CALM 0 0 0 0 1005.8 - 0.4
05/09:00pm 28.0 34.5 25.0 84 2.1 CALM 0 0 0 0 1005.6 1003.5 0.4
05/08:30pm 28.1 32.3 23.5 76 3.2 SW 7 9 4 5 1005.2 - 0.4
05/08:00pm 28.5 33.1 24.1 77 3.1 SW 7 9 4 5 1004.8 - 0.4
05/07:30pm 28.8 35.4 25.2 81 2.6 CALM 0 0 0 0 1004.1 - 0.4
05/07:00pm 29.6 34.6 24.5 74 3.6 W 6 7 3 4 1003.6 - 0.4
05/06:30pm 30.5 34.7 23.2 65 5.1 SW 6 9 3 5 1003.2 - 0.4

Other Formats:

Comma delimited format used in spreadsheet applications
http://www.bom.gov.au/fwo/IDQ60801/IDQ60801.94274.axf

JavaScript Object Notation format (JSON) in row-major order
http://www.bom.gov.au/fwo/IDQ60801/IDQ60801.94274.json